sensor_id;sensor_type;location;lat;lon;timestamp;temperature;humidity
28374;DHT22;15616;40.148;-102.718;2022-08-11T00:01:49;26.20;44.60
28374;DHT22;15616;40.148;-102.718;2022-08-11T00:04:17;26.20;44.70
28374;DHT22;15616;40.148;-102.718;2022-08-11T00:06:44;26.10;44.70
28374;DHT22;15616;40.148;-102.718;2022-08-11T00:09:16;26.10;44.70
28374;DHT22;15616;40.148;-102.718;2022-08-11T00:11:53;26.10;44.70
28374;DHT22;15616;40.148;-102.718;2022-08-11T00:14:28;26.10;44.80
28374;DHT22;15616;40.148;-102.718;2022-08-11T00:17:04;26.10;44.70
28374;DHT22;15616;40.148;-102.718;2022-08-11T00:19:36;26.10;44.70
28374;DHT22;15616;40.148;-102.718;2022-08-11T00:22:05;26.10;44.70
28374;DHT22;15616;40.148;-102.718;2022-08-11T00:24:36;26.10;44.70
28374;DHT22;15616;40.148;-102.718;2022-08-11T00:27:04;26.10;44.70
28374;DHT22;15616;40.148;-102.718;2022-08-11T00:29:31;26.00;44.70
28374;DHT22;15616;40.148;-102.718;2022-08-11T00:32:01;26.00;44.80
28374;DHT22;15616;40.148;-102.718;2022-08-11T00:34:30;26.00;44.80
28374;DHT22;15616;40.148;-102.718;2022-08-11T00:37:08;26.00;44.80
28374;DHT22;15616;40.148;-102.718;2022-08-11T00:39:47;26.00;44.80
28374;DHT22;15616;40.148;-102.718;2022-08-11T00:42:47;26.00;44.80
28374;DHT22;15616;40.148;-102.718;2022-08-11T00:45:26;26.00;44.80
28374;DHT22;15616;40.148;-102.718;2022-08-11T00:48:02;26.00;44.80
28374;DHT22;15616;40.148;-102.718;2022-08-11T00:53:53;26.00;44.80
28374;DHT22;15616;40.148;-102.718;2022-08-11T01:03:03;26.00;44.90
28374;DHT22;15616;40.148;-102.718;2022-08-11T01:06:37;25.90;44.80
28374;DHT22;15616;40.148;-102.718;2022-08-11T01:23:45;25.90;44.80
28374;DHT22;15616;40.148;-102.718;2022-08-11T01:26:53;25.90;44.90
28374;DHT22;15616;40.148;-102.718;2022-08-11T01:37:46;25.90;45.00
28374;DHT22;15616;40.148;-102.718;2022-08-11T01:46:20;25.90;45.00
28374;DHT22;15616;40.148;-102.718;2022-08-11T01:48:56;25.90;44.90
28374;DHT22;15616;40.148;-102.718;2022-08-11T01:54:52;25.90;45.10
28374;DHT22;15616;40.148;-102.718;2022-08-11T01:57:49;25.90;45.10
28374;DHT22;15616;40.148;-102.718;2022-08-11T02:00:20;25.90;45.10
28374;DHT22;15616;40.148;-102.718;2022-08-11T02:11:22;25.90;45.00
28374;DHT22;15616;40.148;-102.718;2022-08-11T02:19:57;25.80;45.20
28374;DHT22;15616;40.148;-102.718;2022-08-11T02:22:59;25.80;45.40
28374;DHT22;15616;40.148;-102.718;2022-08-11T02:26:22;25.80;45.30
28374;DHT22;15616;40.148;-102.718;2022-08-11T02:31:58;25.80;45.30
28374;DHT22;15616;40.148;-102.718;2022-08-11T02:35:09;25.80;45.30
28374;DHT22;15616;40.148;-102.718;2022-08-11T02:37:41;25.80;45.40
28374;DHT22;15616;40.148;-102.718;2022-08-11T02:40:17;25.80;45.40
28374;DHT22;15616;40.148;-102.718;2022-08-11T02:42:53;25.70;45.30
28374;DHT22;15616;40.148;-102.718;2022-08-11T02:56:55;25.80;45.40
28374;DHT22;15616;40.148;-102.718;2022-08-11T02:59:44;25.80;45.40
28374;DHT22;15616;40.148;-102.718;2022-08-11T03:07:39;25.70;45.40
28374;DHT22;15616;40.148;-102.718;2022-08-11T03:28:23;25.70;45.50
28374;DHT22;15616;40.148;-102.718;2022-08-11T03:31:27;25.70;45.50
28374;DHT22;15616;40.148;-102.718;2022-08-11T03:34:00;25.70;45.50
28374;DHT22;15616;40.148;-102.718;2022-08-11T03:37:08;25.70;45.70
28374;DHT22;15616;40.148;-102.718;2022-08-11T03:40:00;25.70;45.60
28374;DHT22;15616;40.148;-102.718;2022-08-11T03:45:25;25.70;45.60
28374;DHT22;15616;40.148;-102.718;2022-08-11T03:48:22;25.60;45.60
28374;DHT22;15616;40.148;-102.718;2022-08-11T03:56:57;25.60;45.70
28374;DHT22;15616;40.148;-102.718;2022-08-11T03:59:44;25.60;45.70
28374;DHT22;15616;40.148;-102.718;2022-08-11T04:20:21;25.70;45.80
28374;DHT22;15616;40.148;-102.718;2022-08-11T04:28:10;25.60;45.70
28374;DHT22;15616;40.148;-102.718;2022-08-11T04:33:58;25.70;45.70
28374;DHT22;15616;40.148;-102.718;2022-08-11T04:36:45;25.60;45.70
28374;DHT22;15616;40.148;-102.718;2022-08-11T04:40:01;25.70;45.80
28374;DHT22;15616;40.148;-102.718;2022-08-11T04:55:24;25.60;45.90
28374;DHT22;15616;40.148;-102.718;2022-08-11T05:11:18;25.80;45.70
28374;DHT22;15616;40.148;-102.718;2022-08-11T05:13:51;25.80;45.70
28374;DHT22;15616;40.148;-102.718;2022-08-11T05:17:08;25.80;45.70
28374;DHT22;15616;40.148;-102.718;2022-08-11T05:19:54;25.80;45.50
28374;DHT22;15616;40.148;-102.718;2022-08-11T05:22:49;25.90;45.60
28374;DHT22;15616;40.148;-102.718;2022-08-11T05:25:34;25.90;45.50
28374;DHT22;15616;40.148;-102.718;2022-08-11T05:28:41;25.90;45.40
28374;DHT22;15616;40.148;-102.718;2022-08-11T05:31:32;25.90;45.30
28374;DHT22;15616;40.148;-102.718;2022-08-11T05:34:42;25.90;45.30
28374;DHT22;15616;40.148;-102.718;2022-08-11T05:37:22;25.90;45.20
28374;DHT22;15616;40.148;-102.718;2022-08-11T05:42:50;25.90;45.50
28374;DHT22;15616;40.148;-102.718;2022-08-11T05:45:36;25.90;45.50
28374;DHT22;15616;40.148;-102.718;2022-08-11T05:48:21;25.90;45.50
28374;DHT22;15616;40.148;-102.718;2022-08-11T05:51:06;25.90;45.50
28374;DHT22;15616;40.148;-102.718;2022-08-11T05:53:56;25.90;45.40
28374;DHT22;15616;40.148;-102.718;2022-08-11T05:56:50;25.90;45.30
28374;DHT22;15616;40.148;-102.718;2022-08-11T05:59:21;26.00;45.40
28374;DHT22;15616;40.148;-102.718;2022-08-11T06:01:48;25.90;45.40
28374;DHT22;15616;40.148;-102.718;2022-08-11T06:04:20;26.00;45.40
28374;DHT22;15616;40.148;-102.718;2022-08-11T06:07:05;26.00;45.30
28374;DHT22;15616;40.148;-102.718;2022-08-11T06:12:09;25.90;45.50
28374;DHT22;15616;40.148;-102.718;2022-08-11T06:14:42;25.80;45.60
28374;DHT22;15616;40.148;-102.718;2022-08-11T06:17:11;25.70;45.60
28374;DHT22;15616;40.148;-102.718;2022-08-11T06:19:41;25.70;45.80
28374;DHT22;15616;40.148;-102.718;2022-08-11T06:22:12;25.80;45.80
28374;DHT22;15616;40.148;-102.718;2022-08-11T06:24:40;25.70;45.80
28374;DHT22;15616;40.148;-102.718;2022-08-11T06:27:07;25.70;45.80
28374;DHT22;15616;40.148;-102.718;2022-08-11T06:29:36;25.70;45.80
28374;DHT22;15616;40.148;-102.718;2022-08-11T06:32:07;25.70;45.90
28374;DHT22;15616;40.148;-102.718;2022-08-11T06:42:56;25.70;45.80
28374;DHT22;15616;40.148;-102.718;2022-08-11T06:45:50;25.80;45.90
28374;DHT22;15616;40.148;-102.718;2022-08-11T06:48:21;25.70;45.90
28374;DHT22;15616;40.148;-102.718;2022-08-11T06:50:59;25.70;45.90
28374;DHT22;15616;40.148;-102.718;2022-08-11T06:53:50;25.80;46.00
28374;DHT22;15616;40.148;-102.718;2022-08-11T06:56:26;25.70;46.00
28374;DHT22;15616;40.148;-102.718;2022-08-11T06:59:15;25.70;46.00
28374;DHT22;15616;40.148;-102.718;2022-08-11T07:02:04;25.70;46.00
28374;DHT22;15616;40.148;-102.718;2022-08-11T07:14:00;25.80;46.80
28374;DHT22;15616;40.148;-102.718;2022-08-11T07:16:48;25.80;46.20
28374;DHT22;15616;40.148;-102.718;2022-08-11T07:19:21;25.70;46.00
28374;DHT22;15616;40.148;-102.718;2022-08-11T07:22:09;25.80;46.10
28374;DHT22;15616;40.148;-102.718;2022-08-11T07:25:14;25.80;46.10
28374;DHT22;15616;40.148;-102.718;2022-08-11T07:28:13;25.80;46.10
28374;DHT22;15616;40.148;-102.718;2022-08-11T07:31:02;25.80;46.00
28374;DHT22;15616;40.148;-102.718;2022-08-11T07:33:55;25.90;46.00
28374;DHT22;15616;40.148;-102.718;2022-08-11T07:36:50;25.90;45.90
28374;DHT22;15616;40.148;-102.718;2022-08-11T07:39:26;25.90;45.90
28374;DHT22;15616;40.148;-102.718;2022-08-11T07:41:54;25.90;45.90
28374;DHT22;15616;40.148;-102.718;2022-08-11T07:44:22;25.90;45.80
28374;DHT22;15616;40.148;-102.718;2022-08-11T07:46:51;25.90;45.70
28374;DHT22;15616;40.148;-102.718;2022-08-11T07:49:38;25.90;45.60
28374;DHT22;15616;40.148;-102.718;2022-08-11T07:52:28;26.00;45.70
28374;DHT22;15616;40.148;-102.718;2022-08-11T07:55:04;26.00;45.60
28374;DHT22;15616;40.148;-102.718;2022-08-11T07:57:31;26.00;45.60
28374;DHT22;15616;40.148;-102.718;2022-08-11T08:00:17;26.00;45.50
28374;DHT22;15616;40.148;-102.718;2022-08-11T08:03:03;26.00;45.50
28374;DHT22;15616;40.148;-102.718;2022-08-11T08:05:49;26.00;45.60
28374;DHT22;15616;40.148;-102.718;2022-08-11T08:08:36;26.00;45.50
28374;DHT22;15616;40.148;-102.718;2022-08-11T08:11:22;26.00;45.50
28374;DHT22;15616;40.148;-102.718;2022-08-11T08:14:08;26.00;45.50
28374;DHT22;15616;40.148;-102.718;2022-08-11T08:16:55;26.00;45.60
28374;DHT22;15616;40.148;-102.718;2022-08-11T08:19:42;26.00;45.60
28374;DHT22;15616;40.148;-102.718;2022-08-11T08:22:15;26.00;45.50
28374;DHT22;15616;40.148;-102.718;2022-08-11T08:25:01;26.00;45.50
28374;DHT22;15616;40.148;-102.718;2022-08-11T08:27:27;26.00;45.50
28374;DHT22;15616;40.148;-102.718;2022-08-11T08:29:53;26.00;45.50
28374;DHT22;15616;40.148;-102.718;2022-08-11T08:32:40;26.00;45.50
28374;DHT22;15616;40.148;-102.718;2022-08-11T08:35:09;26.10;45.50
28374;DHT22;15616;40.148;-102.718;2022-08-11T08:37:36;26.10;45.50
28374;DHT22;15616;40.148;-102.718;2022-08-11T08:40:03;26.10;45.40
28374;DHT22;15616;40.148;-102.718;2022-08-11T08:42:36;26.10;45.40
28374;DHT22;15616;40.148;-102.718;2022-08-11T08:45:13;26.10;45.30
28374;DHT22;15616;40.148;-102.718;2022-08-11T08:47:59;26.10;45.30
28374;DHT22;15616;40.148;-102.718;2022-08-11T08:50:32;26.20;45.30
28374;DHT22;15616;40.148;-102.718;2022-08-11T08:53:22;26.10;45.30
28374;DHT22;15616;40.148;-102.718;2022-08-11T08:55:49;26.20;45.20
28374;DHT22;15616;40.148;-102.718;2022-08-11T08:58:18;26.20;45.10
28374;DHT22;15616;40.148;-102.718;2022-08-11T09:00:46;26.20;45.10
28374;DHT22;15616;40.148;-102.718;2022-08-11T09:03:15;26.20;45.10
28374;DHT22;15616;40.148;-102.718;2022-08-11T09:05:41;26.20;45.10
28374;DHT22;15616;40.148;-102.718;2022-08-11T09:08:08;26.20;45.00
28374;DHT22;15616;40.148;-102.718;2022-08-11T09:10:35;26.20;45.00
28374;DHT22;15616;40.148;-102.718;2022-08-11T09:13:03;26.20;45.00
28374;DHT22;15616;40.148;-102.718;2022-08-11T09:15:31;26.20;45.00
28374;DHT22;15616;40.148;-102.718;2022-08-11T09:18:00;26.20;44.90
28374;DHT22;15616;40.148;-102.718;2022-08-11T09:20:36;26.30;45.00
28374;DHT22;15616;40.148;-102.718;2022-08-11T09:23:07;26.30;44.90
28374;DHT22;15616;40.148;-102.718;2022-08-11T09:25:56;26.30;44.80
28374;DHT22;15616;40.148;-102.718;2022-08-11T09:28:43;26.30;44.70
28374;DHT22;15616;40.148;-102.718;2022-08-11T09:31:10;26.30;44.70
28374;DHT22;15616;40.148;-102.718;2022-08-11T09:33:39;26.30;44.50
28374;DHT22;15616;40.148;-102.718;2022-08-11T09:36:07;26.40;44.50
28374;DHT22;15616;40.148;-102.718;2022-08-11T09:38:53;26.30;44.50
28374;DHT22;15616;40.148;-102.718;2022-08-11T09:41:37;26.40;44.60
28374;DHT22;15616;40.148;-102.718;2022-08-11T09:44:06;26.30;44.50
28374;DHT22;15616;40.148;-102.718;2022-08-11T09:46:52;26.30;44.50
28374;DHT22;15616;40.148;-102.718;2022-08-11T09:49:20;26.30;44.60
28374;DHT22;15616;40.148;-102.718;2022-08-11T09:51:48;26.40;44.70
28374;DHT22;15616;40.148;-102.718;2022-08-11T09:54:15;26.40;44.60
28374;DHT22;15616;40.148;-102.718;2022-08-11T09:56:42;26.40;44.60
28374;DHT22;15616;40.148;-102.718;2022-08-11T09:59:27;26.40;44.60
28374;DHT22;15616;40.148;-102.718;2022-08-11T10:01:57;26.50;44.50
28374;DHT22;15616;40.148;-102.718;2022-08-11T10:04:41;26.50;44.40
28374;DHT22;15616;40.148;-102.718;2022-08-11T10:07:15;26.50;44.30
28374;DHT22;15616;40.148;-102.718;2022-08-11T10:09:51;26.50;44.30
28374;DHT22;15616;40.148;-102.718;2022-08-11T10:12:25;26.60;44.20
28374;DHT22;15616;40.148;-102.718;2022-08-11T10:15:03;26.60;44.10
28374;DHT22;15616;40.148;-102.718;2022-08-11T10:17:55;26.60;44.10
28374;DHT22;15616;40.148;-102.718;2022-08-11T10:20:41;26.60;44.10
28374;DHT22;15616;40.148;-102.718;2022-08-11T10:23:11;26.60;44.10
28374;DHT22;15616;40.148;-102.718;2022-08-11T10:25:57;26.60;43.90
28374;DHT22;15616;40.148;-102.718;2022-08-11T10:28:41;26.70;44.00
28374;DHT22;15616;40.148;-102.718;2022-08-11T10:31:08;26.70;43.90
28374;DHT22;15616;40.148;-102.718;2022-08-11T10:33:53;26.70;43.80
28374;DHT22;15616;40.148;-102.718;2022-08-11T10:38:57;26.80;43.70
28374;DHT22;15616;40.148;-102.718;2022-08-11T10:41:25;26.80;43.70
28374;DHT22;15616;40.148;-102.718;2022-08-11T10:44:10;26.80;43.70
28374;DHT22;15616;40.148;-102.718;2022-08-11T10:46:37;26.80;43.70
28374;DHT22;15616;40.148;-102.718;2022-08-11T10:49:24;26.80;43.70
28374;DHT22;15616;40.148;-102.718;2022-08-11T10:51:52;26.80;43.70
28374;DHT22;15616;40.148;-102.718;2022-08-11T10:54:40;26.80;43.70
28374;DHT22;15616;40.148;-102.718;2022-08-11T10:57:27;26.80;43.70
28374;DHT22;15616;40.148;-102.718;2022-08-11T11:00:12;26.80;43.70
28374;DHT22;15616;40.148;-102.718;2022-08-11T11:02:44;26.80;43.70
28374;DHT22;15616;40.148;-102.718;2022-08-11T11:05:24;26.80;43.70
28374;DHT22;15616;40.148;-102.718;2022-08-11T11:08:07;26.80;43.60
28374;DHT22;15616;40.148;-102.718;2022-08-11T11:10:54;26.90;43.50
28374;DHT22;15616;40.148;-102.718;2022-08-11T11:13:23;26.90;43.60
28374;DHT22;15616;40.148;-102.718;2022-08-11T11:16:09;26.80;43.50
28374;DHT22;15616;40.148;-102.718;2022-08-11T11:18:57;26.80;43.40
28374;DHT22;15616;40.148;-102.718;2022-08-11T11:21:26;26.90;43.40
28374;DHT22;15616;40.148;-102.718;2022-08-11T11:24:11;26.90;43.40
28374;DHT22;15616;40.148;-102.718;2022-08-11T11:37:14;26.90;43.00
28374;DHT22;15616;40.148;-102.718;2022-08-11T11:39:42;26.90;43.00
28374;DHT22;15616;40.148;-102.718;2022-08-11T11:42:10;26.90;42.90
28374;DHT22;15616;40.148;-102.718;2022-08-11T11:44:41;27.00;43.00
28374;DHT22;15616;40.148;-102.718;2022-08-11T11:47:11;27.00;43.00
28374;DHT22;15616;40.148;-102.718;2022-08-11T11:49:37;27.00;43.10
28374;DHT22;15616;40.148;-102.718;2022-08-11T11:52:16;27.00;42.90
28374;DHT22;15616;40.148;-102.718;2022-08-11T11:54:45;27.10;42.90
28374;DHT22;15616;40.148;-102.718;2022-08-11T11:57:16;27.10;42.90
28374;DHT22;15616;40.148;-102.718;2022-08-11T12:00:04;27.10;42.90
28374;DHT22;15616;40.148;-102.718;2022-08-11T12:02:49;27.10;42.80
28374;DHT22;15616;40.148;-102.718;2022-08-11T12:05:16;27.10;42.70
28374;DHT22;15616;40.148;-102.718;2022-08-11T12:07:43;27.10;42.60
28374;DHT22;15616;40.148;-102.718;2022-08-11T12:10:30;27.10;42.60
28374;DHT22;15616;40.148;-102.718;2022-08-11T12:12:58;27.10;42.50
28374;DHT22;15616;40.148;-102.718;2022-08-11T12:15:46;27.10;42.40
28374;DHT22;15616;40.148;-102.718;2022-08-11T12:18:24;27.10;42.40
28374;DHT22;15616;40.148;-102.718;2022-08-11T12:20:50;27.10;42.20
28374;DHT22;15616;40.148;-102.718;2022-08-11T12:23:16;27.10;42.10
28374;DHT22;15616;40.148;-102.718;2022-08-11T12:26:01;27.20;42.10
28374;DHT22;15616;40.148;-102.718;2022-08-11T12:28:46;27.20;42.00
28374;DHT22;15616;40.148;-102.718;2022-08-11T12:31:13;27.20;41.90
28374;DHT22;15616;40.148;-102.718;2022-08-11T12:33:39;27.20;41.80
28374;DHT22;15616;40.148;-102.718;2022-08-11T12:36:10;27.20;41.80
28374;DHT22;15616;40.148;-102.718;2022-08-11T12:38:41;27.20;41.60
28374;DHT22;15616;40.148;-102.718;2022-08-11T12:41:08;27.20;41.50
28374;DHT22;15616;40.148;-102.718;2022-08-11T12:43:54;27.20;41.40
28374;DHT22;15616;40.148;-102.718;2022-08-11T12:46:42;27.30;41.40
28374;DHT22;15616;40.148;-102.718;2022-08-11T12:49:14;27.20;41.30
28374;DHT22;15616;40.148;-102.718;2022-08-11T12:52:08;27.30;41.30
28374;DHT22;15616;40.148;-102.718;2022-08-11T12:57:14;27.30;41.40
28374;DHT22;15616;40.148;-102.718;2022-08-11T12:59:59;27.30;41.40
28374;DHT22;15616;40.148;-102.718;2022-08-11T13:02:46;27.30;41.60
28374;DHT22;15616;40.148;-102.718;2022-08-11T13:05:31;27.30;41.40
28374;DHT22;15616;40.148;-102.718;2022-08-11T13:08:00;27.30;41.30
28374;DHT22;15616;40.148;-102.718;2022-08-11T13:10:30;27.30;41.40
28374;DHT22;15616;40.148;-102.718;2022-08-11T13:13:16;27.30;41.50
28374;DHT22;15616;40.148;-102.718;2022-08-11T13:15:45;27.30;41.40
28374;DHT22;15616;40.148;-102.718;2022-08-11T13:18:15;27.30;41.40
28374;DHT22;15616;40.148;-102.718;2022-08-11T13:20:43;27.30;41.40
28374;DHT22;15616;40.148;-102.718;2022-08-11T13:23:10;27.30;41.50
28374;DHT22;15616;40.148;-102.718;2022-08-11T13:25:38;27.30;41.50
28374;DHT22;15616;40.148;-102.718;2022-08-11T13:28:05;27.30;41.50
28374;DHT22;15616;40.148;-102.718;2022-08-11T13:30:32;27.30;41.40
28374;DHT22;15616;40.148;-102.718;2022-08-11T13:33:17;27.30;41.30
28374;DHT22;15616;40.148;-102.718;2022-08-11T13:35:48;27.30;41.20
28374;DHT22;15616;40.148;-102.718;2022-08-11T13:38:16;27.30;41.20
28374;DHT22;15616;40.148;-102.718;2022-08-11T13:40:44;27.30;41.20
28374;DHT22;15616;40.148;-102.718;2022-08-11T13:43:12;27.30;41.10
28374;DHT22;15616;40.148;-102.718;2022-08-11T13:45:38;27.40;41.20
28374;DHT22;15616;40.148;-102.718;2022-08-11T13:48:09;27.30;41.10
28374;DHT22;15616;40.148;-102.718;2022-08-11T13:50:37;27.30;41.20
28374;DHT22;15616;40.148;-102.718;2022-08-11T13:53:24;27.30;41.30
28374;DHT22;15616;40.148;-102.718;2022-08-11T13:55:51;27.30;41.20
28374;DHT22;15616;40.148;-102.718;2022-08-11T13:58:18;27.30;41.20
28374;DHT22;15616;40.148;-102.718;2022-08-11T14:00:47;27.30;41.20
28374;DHT22;15616;40.148;-102.718;2022-08-11T14:03:14;27.30;41.30
28374;DHT22;15616;40.148;-102.718;2022-08-11T14:05:46;27.30;41.20
28374;DHT22;15616;40.148;-102.718;2022-08-11T14:08:19;27.40;41.20
28374;DHT22;15616;40.148;-102.718;2022-08-11T14:10:48;27.40;41.20
28374;DHT22;15616;40.148;-102.718;2022-08-11T14:13:39;27.40;41.20
28374;DHT22;15616;40.148;-102.718;2022-08-11T14:16:16;27.40;41.10
28374;DHT22;15616;40.148;-102.718;2022-08-11T14:18:46;27.50;41.10
28374;DHT22;15616;40.148;-102.718;2022-08-11T14:21:15;27.40;41.00
28374;DHT22;15616;40.148;-102.718;2022-08-11T14:24:02;27.40;41.00
28374;DHT22;15616;40.148;-102.718;2022-08-11T14:26:30;27.40;41.00
28374;DHT22;15616;40.148;-102.718;2022-08-11T14:29:15;27.50;41.00
28374;DHT22;15616;40.148;-102.718;2022-08-11T14:31:46;27.50;41.10
28374;DHT22;15616;40.148;-102.718;2022-08-11T14:34:14;27.50;41.00
28374;DHT22;15616;40.148;-102.718;2022-08-11T14:36:44;27.50;41.00
28374;DHT22;15616;40.148;-102.718;2022-08-11T14:39:17;27.50;40.90
28374;DHT22;15616;40.148;-102.718;2022-08-11T14:41:49;27.60;40.90
28374;DHT22;15616;40.148;-102.718;2022-08-11T14:44:36;27.60;40.80
28374;DHT22;15616;40.148;-102.718;2022-08-11T14:47:22;27.60;40.80
28374;DHT22;15616;40.148;-102.718;2022-08-11T14:49:49;27.70;40.80
28374;DHT22;15616;40.148;-102.718;2022-08-11T14:52:19;27.70;40.70
28374;DHT22;15616;40.148;-102.718;2022-08-11T14:54:51;27.70;40.70
28374;DHT22;15616;40.148;-102.718;2022-08-11T14:57:38;27.80;40.50
28374;DHT22;15616;40.148;-102.718;2022-08-11T15:00:08;27.80;40.50
28374;DHT22;15616;40.148;-102.718;2022-08-11T15:02:38;27.90;40.20
28374;DHT22;15616;40.148;-102.718;2022-08-11T15:05:24;27.90;40.30
28374;DHT22;15616;40.148;-102.718;2022-08-11T15:07:54;27.90;40.50
28374;DHT22;15616;40.148;-102.718;2022-08-11T15:10:22;27.80;40.50
28374;DHT22;15616;40.148;-102.718;2022-08-11T15:12:48;27.80;40.50
28374;DHT22;15616;40.148;-102.718;2022-08-11T15:15:16;27.70;40.60
28374;DHT22;15616;40.148;-102.718;2022-08-11T15:18:05;27.70;40.70
28374;DHT22;15616;40.148;-102.718;2022-08-11T15:20:33;27.70;40.80
28374;DHT22;15616;40.148;-102.718;2022-08-11T15:23:17;27.60;40.70
28374;DHT22;15616;40.148;-102.718;2022-08-11T15:26:47;27.60;40.80
28374;DHT22;15616;40.148;-102.718;2022-08-11T15:29:09;27.60;41.00
28374;DHT22;15616;40.148;-102.718;2022-08-11T15:31:55;27.60;41.00
28374;DHT22;15616;40.148;-102.718;2022-08-11T15:34:39;27.50;40.90
28374;DHT22;15616;40.148;-102.718;2022-08-11T15:37:27;27.50;41.00
28374;DHT22;15616;40.148;-102.718;2022-08-11T15:43:03;27.50;41.00
28374;DHT22;15616;40.148;-102.718;2022-08-11T15:45:53;27.50;40.90
28374;DHT22;15616;40.148;-102.718;2022-08-11T15:48:27;27.40;41.10
28374;DHT22;15616;40.148;-102.718;2022-08-11T15:50:57;27.50;41.10
28374;DHT22;15616;40.148;-102.718;2022-08-11T15:53:33;27.50;41.10
28374;DHT22;15616;40.148;-102.718;2022-08-11T15:56:00;27.50;41.00
28374;DHT22;15616;40.148;-102.718;2022-08-11T15:58:33;27.50;41.10
28374;DHT22;15616;40.148;-102.718;2022-08-11T16:01:20;27.40;41.10
28374;DHT22;15616;40.148;-102.718;2022-08-11T16:04:09;27.40;41.20
28374;DHT22;15616;40.148;-102.718;2022-08-11T16:07:00;27.40;41.30
28374;DHT22;15616;40.148;-102.718;2022-08-11T16:09:50;27.40;41.20
28374;DHT22;15616;40.148;-102.718;2022-08-11T16:12:23;27.40;41.20
28374;DHT22;15616;40.148;-102.718;2022-08-11T16:15:04;27.40;41.30
28374;DHT22;15616;40.148;-102.718;2022-08-11T16:18:02;27.40;41.30
28374;DHT22;15616;40.148;-102.718;2022-08-11T16:20:29;27.40;41.30
28374;DHT22;15616;40.148;-102.718;2022-08-11T16:23:02;27.40;41.40
28374;DHT22;15616;40.148;-102.718;2022-08-11T16:25:32;27.40;41.30
28374;DHT22;15616;40.148;-102.718;2022-08-11T16:28:02;27.40;41.30
28374;DHT22;15616;40.148;-102.718;2022-08-11T16:30:32;27.40;41.20
28374;DHT22;15616;40.148;-102.718;2022-08-11T16:33:00;27.40;41.20
28374;DHT22;15616;40.148;-102.718;2022-08-11T16:35:32;27.40;41.10
28374;DHT22;15616;40.148;-102.718;2022-08-11T16:38:21;27.40;41.10
28374;DHT22;15616;40.148;-102.718;2022-08-11T16:41:04;27.40;41.20
28374;DHT22;15616;40.148;-102.718;2022-08-11T16:43:33;27.40;41.90
28374;DHT22;15616;40.148;-102.718;2022-08-11T16:46:19;27.40;41.30
28374;DHT22;15616;40.148;-102.718;2022-08-11T16:49:19;27.40;41.30
28374;DHT22;15616;40.148;-102.718;2022-08-11T16:51:46;27.40;41.20
28374;DHT22;15616;40.148;-102.718;2022-08-11T16:54:13;27.40;41.20
28374;DHT22;15616;40.148;-102.718;2022-08-11T16:56:54;27.40;41.20
28374;DHT22;15616;40.148;-102.718;2022-08-11T16:59:32;27.40;41.20
28374;DHT22;15616;40.148;-102.718;2022-08-11T17:02:17;27.40;41.20
28374;DHT22;15616;40.148;-102.718;2022-08-11T17:05:08;27.40;41.30
28374;DHT22;15616;40.148;-102.718;2022-08-11T17:07:56;27.30;41.30
28374;DHT22;15616;40.148;-102.718;2022-08-11T17:13:44;27.40;41.40
28374;DHT22;15616;40.148;-102.718;2022-08-11T17:16:13;27.30;41.40
28374;DHT22;15616;40.148;-102.718;2022-08-11T17:21:40;27.30;41.80
28374;DHT22;15616;40.148;-102.718;2022-08-11T17:24:28;27.30;41.40
28374;DHT22;15616;40.148;-102.718;2022-08-11T17:26:56;27.30;41.40
28374;DHT22;15616;40.148;-102.718;2022-08-11T17:29:52;27.40;41.40
28374;DHT22;15616;40.148;-102.718;2022-08-11T17:32:24;27.40;41.40
28374;DHT22;15616;40.148;-102.718;2022-08-11T17:35:13;27.30;41.30
28374;DHT22;15616;40.148;-102.718;2022-08-11T17:38:09;27.30;41.40
28374;DHT22;15616;40.148;-102.718;2022-08-11T17:40:38;27.30;41.40
28374;DHT22;15616;40.148;-102.718;2022-08-11T17:43:25;27.30;41.40
28374;DHT22;15616;40.148;-102.718;2022-08-11T17:46:11;27.30;41.50
28374;DHT22;15616;40.148;-102.718;2022-08-11T17:49:09;27.30;41.40
28374;DHT22;15616;40.148;-102.718;2022-08-11T17:51:38;27.30;41.40
28374;DHT22;15616;40.148;-102.718;2022-08-11T17:54:23;27.30;42.10
28374;DHT22;15616;40.148;-102.718;2022-08-11T17:57:09;27.30;41.30
28374;DHT22;15616;40.148;-102.718;2022-08-11T17:59:56;27.30;41.30
28374;DHT22;15616;40.148;-102.718;2022-08-11T18:02:28;27.40;41.30
28374;DHT22;15616;40.148;-102.718;2022-08-11T18:05:15;27.40;41.20
28374;DHT22;15616;40.148;-102.718;2022-08-11T18:07:43;27.30;41.10
28374;DHT22;15616;40.148;-102.718;2022-08-11T18:10:30;27.30;41.00
28374;DHT22;15616;40.148;-102.718;2022-08-11T18:13:22;27.40;41.10
28374;DHT22;15616;40.148;-102.718;2022-08-11T18:16:08;27.40;41.10
28374;DHT22;15616;40.148;-102.718;2022-08-11T18:18:54;27.30;41.10
28374;DHT22;15616;40.148;-102.718;2022-08-11T18:21:41;27.40;41.20
28374;DHT22;15616;40.148;-102.718;2022-08-11T18:24:29;27.30;41.20
28374;DHT22;15616;40.148;-102.718;2022-08-11T18:27:15;27.30;41.10
28374;DHT22;15616;40.148;-102.718;2022-08-11T18:30:03;27.30;41.20
28374;DHT22;15616;40.148;-102.718;2022-08-11T18:32:50;27.40;41.20
28374;DHT22;15616;40.148;-102.718;2022-08-11T18:35:40;27.40;41.30
28374;DHT22;15616;40.148;-102.718;2022-08-11T18:38:26;27.30;41.30
28374;DHT22;15616;40.148;-102.718;2022-08-11T18:41:13;27.30;41.20
28374;DHT22;15616;40.148;-102.718;2022-08-11T18:44:02;27.30;41.10
28374;DHT22;15616;40.148;-102.718;2022-08-11T18:46:49;27.30;41.00
28374;DHT22;15616;40.148;-102.718;2022-08-11T18:49:37;27.30;41.10
28374;DHT22;15616;40.148;-102.718;2022-08-11T18:52:22;27.40;41.10
28374;DHT22;15616;40.148;-102.718;2022-08-11T18:55:10;27.40;41.10
28374;DHT22;15616;40.148;-102.718;2022-08-11T18:57:57;27.30;41.00
28374;DHT22;15616;40.148;-102.718;2022-08-11T19:00:45;27.30;41.20
28374;DHT22;15616;40.148;-102.718;2022-08-11T19:03:30;27.30;41.30
28374;DHT22;15616;40.148;-102.718;2022-08-11T19:06:18;27.30;41.40
28374;DHT22;15616;40.148;-102.718;2022-08-11T19:09:06;27.30;41.40
28374;DHT22;15616;40.148;-102.718;2022-08-11T19:11:53;27.30;41.40
28374;DHT22;15616;40.148;-102.718;2022-08-11T19:14:39;27.30;41.40
28374;DHT22;15616;40.148;-102.718;2022-08-11T19:17:29;27.30;41.40
28374;DHT22;15616;40.148;-102.718;2022-08-11T19:20:24;27.30;41.30
28374;DHT22;15616;40.148;-102.718;2022-08-11T19:23:10;27.30;41.20